createdAt,value
2022-08-03T00:04:11.636Z,67.31
2022-08-03T00:08:23.688Z,67.41
2022-08-03T00:12:36.492Z,67.72
2022-08-03T00:16:48.148Z,68.00
2022-08-03T00:20:59.768Z,68.16
2022-08-03T00:25:11.412Z,68.34
2022-08-03T00:29:23.059Z,68.71
2022-08-03T00:33:59.101Z,68.93
2022-08-03T00:38:06.383Z,69.12
2022-08-03T00:42:18.500Z,69.50
2022-08-03T00:46:30.402Z,69.48
2022-08-03T00:50:43.596Z,69.49
2022-08-03T00:54:55.262Z,69.51
2022-08-03T00:59:07.295Z,69.66
2022-08-03T01:03:19.007Z,69.95
2022-08-03T01:07:43.922Z,70.18
2022-08-03T01:12:26.882Z,70.28
2022-08-03T01:17:01.935Z,70.29
2022-08-03T01:21:25.367Z,70.49
2022-08-03T01:25:56.416Z,70.67
2022-08-03T01:30:10.657Z,70.83
2022-08-03T01:34:25.357Z,71.00
2022-08-03T01:38:43.121Z,71.02
2022-08-03T01:42:57.632Z,71.38
2022-08-03T01:47:11.009Z,71.38
2022-08-03T01:51:23.770Z,71.62
2022-08-03T01:55:57.430Z,71.58
2022-08-03T02:00:09.906Z,71.54
2022-08-03T02:04:28.227Z,71.81
2022-08-03T02:08:41.874Z,71.64
2022-08-03T02:12:54.664Z,71.99
2022-08-03T02:17:10.429Z,72.00
2022-08-03T02:21:57.234Z,72.14
2022-08-03T02:25:59.912Z,72.21
2022-08-03T02:30:14.509Z,72.50
2022-08-03T02:34:29.437Z,72.73
2022-08-03T02:38:43.339Z,72.61
2022-08-03T02:42:59.647Z,72.71
2022-08-03T02:47:13.365Z,73.17
2022-08-03T02:51:28.196Z,73.10
2022-08-03T02:55:45.638Z,73.05
2022-08-03T02:59:58.232Z,73.33
2022-08-03T03:04:11.318Z,73.38
2022-08-03T03:08:28.432Z,74.01
2022-08-03T03:12:42.254Z,74.05
2022-08-03T03:16:57.917Z,74.15
2022-08-03T03:21:10.798Z,74.32
2022-08-03T03:25:22.730Z,74.33
2022-08-03T03:29:39.289Z,74.63
2022-08-03T03:33:51.407Z,74.74
2022-08-03T03:38:03.090Z,74.79
2022-08-03T03:42:14.932Z,74.92
2022-08-03T03:46:26.893Z,74.91
2022-08-03T03:50:41.973Z,75.00
2022-08-03T03:54:57.491Z,75.10
2022-08-03T03:59:12.409Z,75.24
2022-08-03T04:03:24.192Z,75.33
2022-08-03T04:08:19.193Z,75.60
2022-08-03T04:12:31.741Z,75.37
2022-08-03T04:16:49.170Z,75.37
2022-08-03T04:21:06.430Z,75.43
2022-08-03T04:25:20.882Z,75.60
2022-08-03T04:29:38.725Z,75.46
2022-08-03T04:34:00.594Z,75.47
2022-08-03T04:38:14.416Z,75.84
2022-08-03T04:42:27.025Z,75.60
2022-08-03T04:46:40.001Z,75.31
2022-08-03T04:50:58.510Z,75.16
2022-08-03T04:55:10.256Z,75.27
2022-08-03T04:59:21.969Z,74.75
2022-08-03T05:03:33.617Z,73.35
2022-08-03T05:07:45.232Z,70.61
2022-08-03T05:11:56.963Z,68.36
2022-08-03T05:16:08.697Z,65.73
2022-08-03T05:20:20.434Z,64.70
2022-08-03T05:24:32.108Z,64.52
2022-08-03T05:28:49.940Z,63.83
2022-08-03T05:33:03.988Z,61.58
2022-08-03T05:37:15.821Z,59.14
2022-08-03T05:41:36.802Z,55.73
2022-08-03T05:46:01.487Z,53.95
2022-08-03T05:50:21.081Z,52.49
2022-08-03T05:54:55.976Z,49.68
2022-08-03T05:59:22.758Z,48.62
2022-08-03T06:03:35.935Z,47.12
2022-08-03T06:07:47.618Z,45.16
2022-08-03T06:11:59.248Z,44.13
2022-08-03T06:16:11.063Z,43.80
2022-08-03T06:20:27.314Z,43.79
2022-08-03T06:24:39.251Z,44.18
2022-08-03T06:29:04.086Z,45.55
2022-08-03T06:33:16.664Z,44.86
2022-08-03T06:37:28.846Z,42.70
2022-08-03T06:41:44.858Z,41.90
2022-08-03T06:45:56.690Z,40.89
2022-08-03T06:50:16.218Z,40.94
2022-08-03T06:54:32.924Z,41.11
2022-08-03T06:58:45.149Z,40.23
2022-08-03T07:02:58.424Z,39.07
2022-08-03T07:07:10.293Z,38.33
2022-08-03T07:11:22.503Z,37.99
2022-08-03T07:15:38.403Z,37.40
2022-08-03T07:20:08.391Z,36.14
2022-08-03T07:24:20.753Z,35.55
2022-08-03T07:28:32.405Z,35.07
2022-08-03T07:32:50.183Z,34.45
2022-08-03T07:37:02.481Z,34.16
2022-08-03T07:41:14.165Z,34.06
2022-08-03T07:45:26.827Z,33.74
2022-08-03T07:49:41.806Z,33.67
2022-08-03T07:53:53.725Z,33.94
2022-08-03T07:58:09.336Z,33.54
2022-08-03T08:02:21.028Z,32.85
2022-08-03T08:06:33.463Z,32.19
2022-08-03T08:10:57.843Z,32.66
2022-08-03T08:15:10.362Z,31.20
2022-08-03T08:19:22.114Z,31.28
2022-08-03T08:23:42.278Z,30.60
2022-08-03T08:28:22.203Z,29.45
2022-08-03T08:32:28.420Z,29.14
2022-08-03T08:36:40.223Z,28.67
2022-08-03T08:40:56.047Z,29.54
2022-08-03T08:45:09.289Z,28.49
2022-08-03T08:49:23.550Z,28.38
2022-08-03T08:53:38.663Z,27.11
2022-08-03T08:58:01.866Z,26.82
2022-08-03T09:02:13.714Z,27.04
2022-08-03T09:06:25.474Z,27.34
2022-08-03T09:10:37.280Z,26.76
2022-08-03T09:15:01.043Z,26.68
2022-08-03T09:19:21.609Z,25.97
2022-08-03T09:24:02.222Z,25.18
2022-08-03T09:29:01.756Z,25.68
2022-08-03T09:32:49.943Z,25.82
2022-08-03T09:37:02.537Z,25.68
2022-08-03T09:41:22.855Z,25.56
2022-08-03T09:45:36.092Z,25.44
2022-08-03T09:50:07.447Z,25.32
2022-08-03T09:54:30.249Z,24.73
2022-08-03T09:58:47.339Z,24.93
2022-08-03T10:03:05.811Z,24.51
2022-08-03T10:07:17.669Z,24.47
2022-08-03T10:11:31.050Z,24.68
2022-08-03T10:16:21.916Z,24.57
2022-08-03T10:20:14.694Z,24.46
2022-08-03T10:24:29.520Z,24.88
2022-08-03T10:28:47.258Z,24.43
2022-08-03T10:33:05.102Z,24.48
2022-08-03T10:37:42.603Z,24.58
2022-08-03T10:42:14.659Z,23.92
2022-08-03T10:46:27.673Z,24.04
2022-08-03T10:50:42.112Z,23.77
2022-08-03T10:55:12.752Z,23.33
2022-08-03T10:59:46.915Z,22.43
2022-08-03T11:03:58.547Z,22.49
2022-08-03T11:08:34.961Z,22.61
2022-08-03T11:12:47.181Z,22.92
2022-08-03T11:17:14.175Z,22.72
2022-08-03T11:21:48.265Z,22.90
2022-08-03T11:26:15.905Z,22.34
2022-08-03T11:30:29.758Z,22.49
2022-08-03T11:35:08.070Z,21.92
2022-08-03T11:39:19.729Z,22.63
2022-08-03T11:43:32.001Z,21.88
2022-08-03T11:47:51.162Z,21.91
2022-08-03T11:52:03.333Z,21.55
2022-08-03T11:56:14.980Z,22.06
2022-08-03T12:00:31.075Z,22.44
2022-08-03T12:05:02.797Z,22.64
2022-08-03T12:09:17.608Z,22.32
2022-08-03T12:14:26.988Z,22.65
2022-08-03T12:18:18.441Z,22.84
2022-08-03T12:22:39.275Z,23.26
2022-08-03T12:26:58.535Z,23.01
2022-08-03T12:31:11.551Z,24.12
2022-08-03T12:35:24.639Z,23.59
2022-08-03T12:39:36.405Z,24.22
2022-08-03T12:44:09.720Z,25.33
2022-08-03T12:48:21.371Z,25.58
2022-08-03T12:52:43.251Z,25.83
2022-08-03T12:57:08.751Z,26.19
2022-08-03T13:01:24.237Z,26.24
2022-08-03T13:05:45.280Z,26.45
2022-08-03T13:09:56.962Z,26.54
2022-08-03T13:14:08.563Z,27.06
2022-08-03T13:18:25.058Z,27.87
2022-08-03T13:22:36.792Z,28.33
2022-08-03T13:26:48.409Z,28.63
2022-08-03T13:31:00.645Z,28.50
2022-08-03T13:35:12.360Z,28.80
2022-08-03T13:39:32.481Z,29.98
2022-08-03T13:43:46.861Z,30.12
2022-08-03T13:47:58.530Z,30.60
2022-08-03T13:52:10.230Z,31.08
2022-08-03T13:56:21.908Z,31.46
2022-08-03T14:00:34.440Z,31.16
2022-08-03T14:04:46.057Z,31.23
2022-08-03T14:09:00.558Z,32.10
2022-08-03T14:13:16.851Z,32.45
2022-08-03T14:17:40.779Z,32.63
2022-08-03T14:22:06.246Z,32.84
2022-08-03T14:26:20.295Z,32.97
2022-08-03T14:30:32.002Z,32.93
2022-08-03T14:34:43.794Z,32.78
2022-08-03T14:39:00.767Z,32.88
2022-08-03T14:43:13.223Z,33.48
2022-08-03T14:47:24.943Z,33.54
2022-08-03T14:51:36.707Z,34.27
2022-08-03T14:55:50.618Z,34.11
2022-08-03T15:00:04.694Z,34.44
2022-08-03T15:04:16.610Z,34.39
2022-08-03T15:08:28.367Z,34.57
2022-08-03T15:12:40.009Z,35.24
2022-08-03T15:16:51.711Z,34.79
2022-08-03T15:21:03.403Z,34.87
2022-08-03T15:26:03.567Z,34.93
2022-08-03T15:30:06.715Z,35.01
2022-08-03T15:34:18.575Z,34.63
2022-08-03T15:38:30.189Z,34.46
2022-08-03T15:42:41.881Z,34.45
2022-08-03T15:46:53.902Z,34.71
2022-08-03T15:51:05.872Z,35.23
2022-08-03T15:55:17.516Z,35.03
2022-08-03T15:59:29.164Z,35.03
2022-08-03T16:03:40.805Z,35.23
2022-08-03T16:07:59.022Z,35.24
2022-08-03T16:12:16.907Z,35.83
2022-08-03T16:16:28.637Z,35.56
2022-08-03T16:20:42.588Z,35.73
2022-08-03T16:24:55.304Z,35.83
2022-08-03T16:29:09.854Z,35.99
2022-08-03T16:33:35.508Z,35.74
2022-08-03T16:37:54.620Z,36.39
2022-08-03T16:42:08.708Z,36.41
2022-08-03T16:46:20.354Z,36.44
2022-08-03T16:50:32.210Z,36.86
2022-08-03T16:54:44.363Z,37.05
2022-08-03T16:59:04.816Z,37.29
2022-08-03T17:03:24.268Z,37.22
2022-08-03T17:07:36.196Z,37.41
2022-08-03T17:11:51.068Z,37.50
2022-08-03T17:16:04.835Z,37.75
2022-08-03T17:21:13.979Z,38.33
2022-08-03T17:25:51.468Z,38.62
2022-08-03T17:30:01.470Z,38.51
2022-08-03T17:34:14.529Z,38.41
2022-08-03T17:38:28.962Z,37.87
2022-08-03T17:42:50.447Z,38.38
2022-08-03T17:47:02.830Z,38.53
2022-08-03T17:51:34.019Z,38.81
2022-08-03T17:56:44.837Z,39.22
2022-08-03T18:01:59.822Z,39.54
2022-08-03T18:06:11.247Z,40.25
2022-08-03T18:10:20.727Z,40.38
2022-08-03T18:14:57.158Z,40.79
2022-08-03T18:19:13.808Z,40.88
2022-08-03T18:23:36.649Z,40.79
2022-08-03T18:27:50.563Z,40.64
2022-08-03T18:32:13.279Z,40.66
2022-08-03T18:36:30.289Z,40.66
2022-08-03T18:40:48.650Z,40.53
2022-08-03T18:45:55.347Z,40.52
2022-08-03T18:50:18.993Z,41.04
2022-08-03T18:55:02.542Z,41.23
2022-08-03T18:59:32.664Z,41.19
2022-08-03T19:03:52.062Z,41.75
2022-08-03T19:08:13.691Z,42.11
2022-08-03T19:12:37.853Z,42.29
2022-08-03T19:17:03.566Z,42.33
2022-08-03T19:21:17.527Z,42.92
2022-08-03T19:25:35.305Z,43.02
2022-08-03T19:29:58.811Z,43.49
2022-08-03T19:34:20.876Z,43.75
2022-08-03T19:38:35.938Z,44.13
2022-08-03T19:42:54.686Z,44.25
2022-08-03T19:47:29.420Z,44.50
2022-08-03T19:52:01.863Z,45.90
2022-08-03T19:56:15.187Z,45.32
2022-08-03T20:00:30.551Z,45.50
2022-08-03T20:04:48.930Z,45.49
2022-08-03T20:09:03.401Z,45.58
2022-08-03T20:13:19.642Z,45.77
2022-08-03T20:17:54.616Z,46.07
2022-08-03T20:22:08.193Z,45.96
2022-08-03T20:26:29.200Z,46.63
2022-08-03T20:30:47.383Z,46.87
2022-08-03T20:36:05.872Z,46.97
2022-08-03T20:40:20.644Z,47.06
2022-08-03T20:44:34.720Z,47.40
2022-08-03T20:48:57.187Z,47.57
2022-08-03T20:53:12.127Z,47.91
2022-08-03T20:57:24.746Z,48.19
2022-08-03T21:01:37.359Z,48.26
2022-08-03T21:05:53.525Z,48.58
2022-08-03T21:10:06.218Z,48.38
2022-08-03T21:14:31.699Z,48.68
2022-08-03T21:18:50.039Z,49.25
2022-08-03T21:23:09.619Z,49.60
2022-08-03T21:27:21.516Z,50.06
2022-08-03T21:31:33.329Z,50.33
2022-08-03T21:35:46.451Z,50.64
2022-08-03T21:39:58.162Z,51.18
2022-08-03T21:44:09.910Z,51.65
2022-08-03T21:48:25.099Z,51.45
2022-08-03T21:52:43.334Z,51.79
2022-08-03T21:56:56.257Z,51.88
2022-08-03T22:01:09.417Z,51.72
2022-08-03T22:05:29.199Z,52.09
2022-08-03T22:09:58.078Z,52.59
2022-08-03T22:14:10.214Z,52.65
2022-08-03T22:18:22.262Z,52.88
2022-08-03T22:22:35.668Z,53.08
2022-08-03T22:27:06.967Z,53.32
2022-08-03T22:31:30.745Z,53.45
2022-08-03T22:35:55.909Z,53.26
2022-08-03T22:40:11.821Z,53.72
2022-08-03T22:44:24.097Z,53.53
2022-08-03T22:48:41.323Z,53.55
2022-08-03T22:52:54.211Z,53.88
2022-08-03T22:57:05.974Z,53.98
2022-08-03T23:01:21.237Z,54.16
2022-08-03T23:06:01.779Z,54.24
2022-08-03T23:10:09.026Z,54.35
2022-08-03T23:14:22.406Z,54.79
2022-08-03T23:18:41.276Z,54.84
2022-08-03T23:22:54.422Z,54.99
2022-08-03T23:27:09.168Z,55.21
2022-08-03T23:31:27.725Z,55.31
2022-08-03T23:36:28.061Z,55.59
2022-08-03T23:40:31.256Z,55.89
2022-08-03T23:44:44.575Z,56.25
2022-08-03T23:48:59.953Z,55.93
2022-08-03T23:53:21.556Z,56.25
2022-08-03T23:57:54.661Z,56.40
